Time;durP1;ratioP1;P1;durP2;ratioP2;P2;SDS_P1;SDS_P2;PMS_P1;PMS_P2;Temp;Humidity;BMP_temperature;BMP_pressure;BME280_temperature;BME280_humidity;BME280_pressure;Samples;Min_cycle;Max_cycle;Signal;HPM_P1;HPM_P2
2023/06/19 00:01:29;;;;;;;10.60;9.80;;;21.70;99.90;;;;;;4941694;28;92192;-34
2023/06/19 00:03:55;;;;;;;11.35;10.20;;;21.70;99.90;;;;;;4941806;28;88706;-34
2023/06/19 00:06:21;;;;;;;12.80;11.55;;;21.70;99.90;;;;;;4941032;28;90286;-34
2023/06/19 00:08:46;;;;;;;11.60;10.40;;;21.70;99.90;;;;;;4939986;28;89664;-35
2023/06/19 00:11:12;;;;;;;12.43;11.07;;;21.70;99.90;;;;;;4941091;28;89630;-34
2023/06/19 00:13:37;;;;;;;11.48;10.27;;;21.70;99.90;;;;;;4941367;28;88355;-34
2023/06/19 00:16:03;;;;;;;14.23;10.02;;;21.70;99.90;;;;;;4941486;28;90103;-32
2023/06/19 00:18:29;;;;;;;10.57;9.48;;;21.80;99.90;;;;;;4940560;28;90821;-33
2023/06/19 00:20:56;;;;;;;10.90;9.50;;;21.80;99.90;;;;;;4941004;28;89388;-33
2023/06/19 00:23:22;;;;;;;11.35;10.25;;;21.90;99.90;;;;;;4941919;28;89133;-33
2023/06/19 00:25:48;;;;;;;12.07;10.82;;;22.00;99.60;;;;;;4940192;28;90092;-35
2023/06/19 00:28:14;;;;;;;11.77;10.55;;;22.10;98.20;;;;;;4940711;28;89697;-34
2023/06/19 00:30:41;;;;;;;11.15;10.02;;;22.10;96.30;;;;;;4941075;28;89814;-31
2023/06/19 00:33:07;;;;;;;11.10;10.00;;;22.20;94.60;;;;;;4940285;28;89573;-33
2023/06/19 00:35:33;;;;;;;11.55;10.48;;;22.20;93.80;;;;;;4940849;28;90217;-34
2023/06/19 00:38:02;;;;;;;10.32;9.43;;;22.20;93.80;;;;;;4941151;28;89993;-32
2023/06/19 00:40:30;;;;;;;15.38;10.65;;;22.30;91.70;;;;;;4940731;28;88121;-33
2023/06/19 00:42:56;;;;;;;11.20;10.18;;;22.20;92.10;;;;;;4941114;28;89178;-33
2023/06/19 00:45:23;;;;;;;12.00;10.80;;;22.20;92.10;;;;;;4940346;28;90210;-34
2023/06/19 00:47:50;;;;;;;11.85;10.40;;;22.30;91.00;;;;;;4940811;28;89222;-36
2023/06/19 00:50:16;;;;;;;11.10;9.25;;;22.20;91.90;;;;;;4939931;28;90997;-33
2023/06/19 00:52:42;;;;;;;11.55;10.07;;;22.30;89.50;;;;;;4940856;28;88255;-35
2023/06/19 00:55:09;;;;;;;10.90;9.55;;;22.30;86.80;;;;;;4940519;28;89550;-32
2023/06/19 00:57:35;;;;;;;14.73;10.23;;;22.30;88.80;;;;;;4941020;28;89342;-33
2023/06/19 01:00:04;;;;;;;10.32;9.05;;;22.30;86.70;;;;;;4940189;28;89938;-34
2023/06/19 01:02:30;;;;;;;10.20;8.68;;;22.40;86.00;;;;;;4941111;28;88148;-36
2023/06/19 01:04:56;;;;;;;11.73;10.52;;;22.30;90.00;;;;;;4941174;28;89192;-33
2023/06/19 01:07:56;;;;;;;12.88;10.20;;;22.20;87.30;;;;;;4940023;28;89477;-34
2023/06/19 01:10:27;;;;;;;12.13;10.88;;;22.20;90.10;;;;;;4907566;28;89677;-32
2023/06/19 01:13:01;;;;;;;12.32;9.88;;;22.20;90.30;;;;;;4939247;28;90159;-34
2023/06/19 01:15:27;;;;;;;10.43;9.38;;;22.20;89.40;;;;;;4940805;28;89996;-31
2023/06/19 01:17:56;;;;;;;10.75;9.23;;;22.20;88.50;;;;;;4940861;28;89604;-34
2023/06/19 01:20:22;;;;;;;11.35;9.35;;;22.20;90.50;;;;;;4940258;28;89440;-35
2023/06/19 01:22:47;;;;;;;10.85;9.73;;;22.20;90.70;;;;;;4940929;28;89011;-34
2023/06/19 01:25:13;;;;;;;12.60;11.40;;;22.20;91.10;;;;;;4940505;28;89939;-34
2023/06/19 01:27:41;;;;;;;9.68;8.85;;;22.10;91.40;;;;;;4939621;28;90339;-33
2023/06/19 01:30:09;;;;;;;12.85;10.65;;;22.10;91.40;;;;;;4939383;28;89187;-33
2023/06/19 01:32:44;;;;;;;12.57;10.32;;;22.10;92.10;;;;;;4940204;28;89796;-34
2023/06/19 01:35:11;;;;;;;10.02;8.85;;;22.20;91.60;;;;;;4939619;28;90413;-33
2023/06/19 01:37:39;;;;;;;10.40;9.43;;;22.10;92.90;;;;;;4939869;28;91046;-32
2023/06/19 01:40:06;;;;;;;;;;;22.10;93.50;;;;;;4940375;28;90269;-35
2023/06/19 01:42:34;;;;;;;10.48;9.35;;;22.10;92.30;;;;;;4942382;28;89811;-33
2023/06/19 01:45:02;;;;;;;11.40;10.30;;;22.10;92.70;;;;;;4940360;28;91376;-31
2023/06/19 01:47:28;;;;;;;10.13;9.23;;;22.10;93.70;;;;;;4939886;28;89450;-35
2023/06/19 01:49:54;;;;;;;11.73;10.57;;;22.10;94.70;;;;;;4939837;28;88153;-36
2023/06/19 01:52:19;;;;;;;11.13;10.02;;;22.10;95.20;;;;;;4940102;28;88379;-33
2023/06/19 01:54:45;;;;;;;10.30;9.30;;;22.00;95.60;;;;;;4938858;28;90491;-33
2023/06/19 01:57:11;;;;;;;11.25;10.00;;;22.00;95.70;;;;;;4940773;28;90236;-33
2023/06/19 01:59:36;;;;;;;10.55;9.52;;;22.00;96.40;;;;;;4938965;28;89649;-34
2023/06/19 02:02:03;;;;;;;10.55;9.20;;;22.00;96.60;;;;;;4939970;28;90634;-36
2023/06/19 02:04:29;;;;;;;11.30;9.97;;;22.00;97.00;;;;;;4940072;28;89841;-33
2023/06/19 02:06:55;;;;;;;10.27;9.27;;;21.90;98.30;;;;;;4938853;28;90179;-36
2023/06/19 02:09:20;;;;;;;12.38;11.00;;;21.90;98.40;;;;;;4939696;28;88697;-33
2023/06/19 02:11:46;;;;;;;10.00;9.07;;;21.90;99.60;;;;;;4939359;28;89445;-34
2023/06/19 02:14:12;;;;;;;10.45;9.48;;;21.90;99.90;;;;;;4939378;28;90163;-34
2023/06/19 02:16:37;;;;;;;11.95;9.77;;;21.80;99.90;;;;;;4939946;28;90824;-33
2023/06/19 02:19:03;;;;;;;9.65;8.75;;;21.80;99.90;;;;;;4940125;28;89945;-33
2023/06/19 02:21:28;;;;;;;11.18;10.07;;;21.70;99.90;;;;;;4938602;28;89227;-36
2023/06/19 02:23:54;;;;;;;10.57;9.55;;;21.70;99.90;;;;;;4938798;28;90126;-32
2023/06/19 02:26:21;;;;;;;9.90;8.77;;;21.70;99.90;;;;;;4939508;28;90624;-34
2023/06/19 02:28:46;;;;;;;10.65;9.70;;;21.70;99.90;;;;;;4939705;28;90440;-35
2023/06/19 02:31:12;;;;;;;11.75;10.50;;;21.70;99.90;;;;;;4937232;28;88896;-35
2023/06/19 02:33:37;;;;;;;10.30;9.13;;;21.70;99.90;;;;;;4939209;28;89541;-32
2023/06/19 02:36:04;;;;;;;10.95;9.85;;;21.60;99.90;;;;;;4939157;28;89233;-32
2023/06/19 02:38:30;;;;;;;13.60;10.00;;;21.60;99.90;;;;;;4939726;28;89554;-33
2023/06/19 02:41:01;;;;;;;11.40;9.80;;;21.60;99.90;;;;;;4939050;28;89176;-35
2023/06/19 02:43:26;;;;;;;11.15;10.07;;;21.50;99.90;;;;;;4940090;28;90018;-32
2023/06/19 02:45:52;;;;;;;11.20;10.10;;;21.60;99.90;;;;;;4938762;28;89461;-32
2023/06/19 02:48:19;;;;;;;10.95;9.95;;;21.60;99.90;;;;;;4938562;28;89714;-32
2023/06/19 02:50:44;;;;;;;10.82;9.75;;;21.60;99.90;;;;;;4939066;28;90377;-33
2023/06/19 02:53:11;;;;;;;10.70;9.70;;;21.60;99.90;;;;;;4938905;28;90451;-37
2023/06/19 02:55:36;;;;;;;11.27;10.18;;;21.70;99.90;;;;;;4939709;28;90226;-36
2023/06/19 02:58:03;;;;;;;11.32;10.20;;;21.70;99.90;;;;;;4938421;28;89856;-33
2023/06/19 03:00:28;;;;;;;10.40;9.13;;;21.70;99.90;;;;;;4938358;28;89488;-36
2023/06/19 03:02:54;;;;;;;9.85;9.05;;;21.70;99.90;;;;;;4939140;28;90153;-34
2023/06/19 03:05:20;;;;;;;10.07;9.18;;;21.70;99.90;;;;;;4939172;28;89742;-34
2023/06/19 03:07:45;;;;;;;11.32;10.27;;;21.80;99.90;;;;;;4939226;28;90807;-33
2023/06/19 03:10:11;;;;;;;10.63;9.63;;;21.80;99.90;;;;;;4938678;28;88586;-33
2023/06/19 03:12:37;;;;;;;10.73;9.73;;;21.80;99.90;;;;;;4939084;28;89073;-34
2023/06/19 03:15:02;;;;;;;11.05;9.90;;;21.80;99.90;;;;;;4938593;28;90801;-34
2023/06/19 03:17:28;;;;;;;9.88;9.05;;;21.80;99.90;;;;;;4938800;28;90312;-34
2023/06/19 03:19:54;;;;;;;11.88;10.77;;;21.80;99.90;;;;;;4939566;28;87956;-31
2023/06/19 03:22:21;;;;;;;9.73;8.77;;;21.80;99.90;;;;;;4937581;28;89811;-33
2023/06/19 03:24:46;;;;;;;10.43;9.45;;;21.70;99.90;;;;;;4939893;28;90141;-33
2023/06/19 03:27:12;;;;;;;11.10;10.02;;;21.70;99.90;;;;;;4938880;28;89452;-33
2023/06/19 03:29:38;;;;;;;10.30;9.20;;;21.70;99.90;;;;;;4938484;28;90242;-33
2023/06/19 03:32:04;;;;;;;10.93;9.93;;;21.70;99.90;;;;;;4938764;28;90655;-32
2023/06/19 03:34:29;;;;;;;11.35;9.85;;;21.70;99.90;;;;;;4941893;28;89480;-33
2023/06/19 03:36:55;;;;;;;11.73;10.25;;;21.70;99.90;;;;;;4941972;28;89621;-32
2023/06/19 03:39:21;;;;;;;9.40;8.60;;;21.60;99.90;;;;;;4940998;28;88850;-34
2023/06/19 03:41:46;;;;;;;10.48;9.38;;;21.60;99.90;;;;;;4942025;28;90230;-35
2023/06/19 03:44:12;;;;;;;10.45;8.98;;;21.60;99.90;;;;;;4941751;28;90012;-34
2023/06/19 03:46:37;;;;;;;9.95;9.05;;;21.60;99.90;;;;;;4941359;28;89650;-35
2023/06/19 03:49:04;;;;;;;12.48;8.82;;;21.60;99.90;;;;;;4942782;28;89751;-33
2023/06/19 03:51:30;;;;;;;10.60;9.27;;;21.60;99.90;;;;;;4941492;28;89969;-32
2023/06/19 03:53:56;;;;;;;10.55;9.55;;;21.50;99.90;;;;;;4942886;28;90488;-37
2023/06/19 03:56:21;;;;;;;10.07;9.15;;;21.50;99.90;;;;;;4940922;28;89513;-34
2023/06/19 03:58:47;;;;;;;9.77;8.73;;;21.50;99.90;;;;;;4941787;28;89223;-35
2023/06/19 04:01:12;;;;;;;9.77;8.75;;;21.50;99.90;;;;;;4941541;28;90192;-32
2023/06/19 04:03:38;;;;;;;8.73;7.93;;;21.60;99.90;;;;;;4941032;28;90614;-34
2023/06/19 04:06:03;;;;;;;8.70;7.72;;;21.50;99.90;;;;;;4942271;28;90061;-33
2023/06/19 04:08:29;;;;;;;8.60;7.60;;;21.50;99.90;;;;;;4941422;28;89171;-34
2023/06/19 04:10:55;;;;;;;8.68;7.90;;;21.50;99.90;;;;;;4941865;28;90389;-36
2023/06/19 04:13:20;;;;;;;8.75;7.75;;;21.50;99.90;;;;;;4941835;28;88795;-35
2023/06/19 04:15:47;;;;;;;8.52;7.82;;;21.50;99.90;;;;;;4941338;28;90199;-37
2023/06/19 04:18:12;;;;;;;11.10;9.48;;;21.50;99.90;;;;;;4942081;28;87570;-33
2023/06/19 04:20:38;;;;;;;9.50;8.57;;;21.40;99.90;;;;;;4941285;28;90481;-33
2023/06/19 04:23:04;;;;;;;8.02;7.22;;;21.40;99.90;;;;;;4942409;28;90103;-33
2023/06/19 04:25:29;;;;;;;9.52;8.55;;;21.40;99.90;;;;;;4941129;28;89550;-33
2023/06/19 04:27:55;;;;;;;9.13;8.18;;;21.40;99.90;;;;;;4941217;28;90090;-32
2023/06/19 04:30:20;;;;;;;7.65;6.93;;;21.40;99.90;;;;;;4941243;28;90632;-32
2023/06/19 04:32:47;;;;;;;8.80;7.78;;;21.40;99.90;;;;;;5034318;22;89705;-33
2023/06/19 04:35:12;;;;;;;8.00;7.20;;;21.40;99.90;;;;;;4999051;28;89704;-34
2023/06/19 04:37:38;;;;;;;8.38;7.57;;;21.40;99.90;;;;;;4999649;28;88929;-35
2023/06/19 04:40:04;;;;;;;7.63;6.65;;;21.50;99.90;;;;;;4999335;28;88614;-32
2023/06/19 04:42:31;;;;;;;7.38;6.68;;;21.50;99.90;;;;;;5006382;28;90470;-32
2023/06/19 04:44:58;;;;;;;6.93;6.28;;;21.60;99.90;;;;;;5001620;28;89453;-33
2023/06/19 04:47:24;;;;;;;6.47;5.88;;;21.70;99.90;;;;;;5009667;28;89119;-35
2023/06/19 04:49:50;;;;;;;7.53;5.20;;;21.80;99.90;;;;;;4999335;28;89948;-34
2023/06/19 04:52:15;;;;;;;10.05;4.78;;;21.80;99.90;;;;;;5008672;28;90551;-33
2023/06/19 04:54:41;;;;;;;5.68;5.03;;;21.90;99.90;;;;;;5003015;28;89198;-34
2023/06/19 04:57:06;;;;;;;4.95;4.45;;;22.00;99.90;;;;;;4998573;28;89196;-33
2023/06/19 04:59:33;;;;;;;6.30;4.95;;;22.00;99.90;;;;;;4998564;28;90450;-37
2023/06/19 05:01:59;;;;;;;5.15;4.68;;;22.00;99.90;;;;;;4998943;28;90065;-33
2023/06/19 05:04:25;;;;;;;6.28;4.45;;;22.10;99.90;;;;;;5001525;28;90032;-33
2023/06/19 05:06:50;;;;;;;10.10;4.75;;;22.30;99.90;;;;;;4999254;28;89132;-33
2023/06/19 05:09:16;;;;;;;6.03;5.07;;;22.10;99.90;;;;;;4997650;28;90227;-33
2023/06/19 05:11:42;;;;;;;5.70;4.72;;;22.00;99.90;;;;;;4998500;28;89191;-33
2023/06/19 05:14:08;;;;;;;8.07;4.30;;;22.20;99.90;;;;;;4997348;28;88485;-32
2023/06/19 05:16:34;;;;;;;5.60;4.55;;;22.10;99.90;;;;;;4996850;28;89534;-34
2023/06/19 05:18:59;;;;;;;5.22;4.05;;;22.00;99.90;;;;;;4999092;28;90899;-34
2023/06/19 05:21:25;;;;;;;5.43;4.32;;;21.90;99.90;;;;;;4997682;28;89620;-34
2023/06/19 05:23:52;;;;;;;5.80;5.25;;;21.80;99.90;;;;;;4998925;28;89855;-37
2023/06/19 05:26:19;;;;;;;11.43;5.07;;;21.70;99.90;;;;;;4998682;28;88965;-34
2023/06/19 05:28:45;;;;;;;4.28;3.88;;;21.40;99.90;;;;;;5007914;28;88853;-34
2023/06/19 05:31:11;;;;;;;6.83;5.37;;;21.50;99.90;;;;;;4957449;28;1133819;-34
2023/06/19 05:33:36;;;;;;;8.00;4.05;;;21.40;99.90;;;;;;5000002;28;88929;-34
2023/06/19 05:36:02;;;;;;;5.70;4.43;;;21.50;99.90;;;;;;4998975;28;87959;-32
2023/06/19 05:38:30;;;;;;;8.95;4.55;;;21.40;99.90;;;;;;5009915;28;90226;-34
2023/06/19 05:40:59;;;;;;;4.97;4.47;;;21.30;99.90;;;;;;5001939;28;90373;-34
2023/06/19 05:43:25;;;;;;;4.72;4.32;;;21.30;99.90;;;;;;4999161;28;90525;-35
2023/06/19 05:45:52;;;;;;;9.50;5.82;;;21.30;99.90;;;;;;5001633;28;88067;-36
2023/06/19 05:48:17;;;;;;;5.10;4.60;;;21.20;99.90;;;;;;4999573;28;90171;-33
2023/06/19 05:50:43;;;;;;;5.38;4.88;;;21.20;99.90;;;;;;4998587;28;89773;-34
2023/06/19 05:53:08;;;;;;;5.45;4.95;;;21.10;99.90;;;;;;4999307;28;89371;-35
2023/06/19 05:55:34;;;;;;;7.10;5.40;;;21.10;99.90;;;;;;4999529;28;89553;-32
2023/06/19 05:58:00;;;;;;;6.05;5.45;;;21.20;99.90;;;;;;4998468;28;90637;-36
2023/06/19 06:00:27;;;;;;;6.05;4.88;;;21.40;99.90;;;;;;5011036;28;90367;-36
2023/06/19 06:02:53;;;;;;;5.55;5.05;;;21.70;99.90;;;;;;4995808;28;90519;-34
2023/06/19 06:05:20;;;;;;;4.72;4.32;;;22.10;99.90;;;;;;4997107;28;88929;-34
2023/06/19 06:07:46;;;;;;;4.72;4.32;;;22.30;99.90;;;;;;5000085;28;89970;-35
2023/06/19 06:10:12;;;;;;;5.50;5.00;;;22.40;99.90;;;;;;4998550;28;89352;-34
2023/06/19 06:12:37;;;;;;;5.32;4.32;;;22.60;99.90;;;;;;4999277;28;89558;-36
2023/06/19 06:15:05;;;;;;;5.63;3.83;;;22.70;99.90;;;;;;4998559;28;88947;-35
2023/06/19 06:17:31;;;;;;;8.02;4.22;;;22.60;99.90;;;;;;4998487;28;91233;-35
2023/06/19 06:19:56;;;;;;;5.22;4.70;;;22.70;99.90;;;;;;5002093;28;89850;-32
2023/06/19 06:22:22;;;;;;;5.65;5.15;;;22.70;99.90;;;;;;4999017;28;89485;-34
2023/06/19 06:24:48;;;;;;;5.07;4.28;;;22.70;99.90;;;;;;5001066;28;89391;-33
2023/06/19 06:27:13;;;;;;;5.97;5.28;;;22.60;99.90;;;;;;4997943;28;89401;-32
2023/06/19 06:29:39;;;;;;;7.78;4.88;;;22.30;99.90;;;;;;4994063;28;91554;-33
2023/06/19 06:32:07;;;;;;;16.20;5.32;;;22.30;99.90;;;;;;4995056;28;90639;-35
2023/06/19 06:34:33;;;;;;;4.78;4.38;;;22.30;99.90;;;;;;4996251;28;88450;-33
2023/06/19 06:37:02;;;;;;;4.95;4.55;;;22.20;99.90;;;;;;4994979;28;90314;-32
2023/06/19 06:39:28;;;;;;;4.78;4.38;;;22.20;99.90;;;;;;4995242;28;90349;-33
2023/06/19 06:41:54;;;;;;;4.78;4.35;;;22.30;99.90;;;;;;4996963;28;89654;-33
2023/06/19 06:44:19;;;;;;;4.90;4.47;;;22.30;99.90;;;;;;4998842;28;88783;-33
2023/06/19 06:46:46;;;;;;;8.48;5.25;;;22.10;99.90;;;;;;4996471;28;90176;-34
2023/06/19 06:49:12;;;;;;;5.00;4.50;;;22.30;99.90;;;;;;4998143;28;91147;-35
2023/06/19 06:51:37;;;;;;;6.90;5.75;;;22.40;99.90;;;;;;4994184;28;89714;-34
2023/06/19 06:54:03;;;;;;;8.95;4.43;;;22.20;99.90;;;;;;4990092;28;89013;-33
2023/06/19 06:56:29;;;;;;;5.93;5.43;;;22.50;99.90;;;;;;4994445;28;90201;-35
2023/06/19 06:58:55;;;;;;;7.65;6.82;;;23.00;99.90;;;;;;4988072;28;89973;-37
2023/06/19 07:01:20;;;;;;;6.53;5.88;;;23.20;99.90;;;;;;4995653;28;89583;-34
2023/06/19 07:03:46;;;;;;;5.70;5.10;;;22.90;99.90;;;;;;4996292;28;89436;-37
2023/06/19 07:06:11;;;;;;;5.80;5.28;;;22.70;99.90;;;;;;4996363;28;90239;-34
2023/06/19 07:08:38;;;;;;;6.10;5.60;;;22.60;99.90;;;;;;4999214;28;90124;-34
2023/06/19 07:11:04;;;;;;;5.78;5.28;;;22.40;99.90;;;;;;5000023;28;88675;-35
2023/06/19 07:13:29;;;;;;;8.02;6.07;;;22.30;99.90;;;;;;4999711;28;89619;-35
2023/06/19 07:15:55;;;;;;;6.72;6.18;;;22.10;99.90;;;;;;4998786;28;89675;-37
2023/06/19 07:18:20;;;;;;;11.70;7.25;;;22.00;99.90;;;;;;4999605;28;90586;-35
2023/06/19 07:20:46;;;;;;;10.57;7.65;;;21.80;99.90;;;;;;4996445;28;90344;-32
2023/06/19 07:23:11;;;;;;;7.60;6.90;;;21.80;99.90;;;;;;4999572;28;89820;-35
2023/06/19 07:25:37;;;;;;;7.97;6.95;;;21.70;99.90;;;;;;4999280;28;89639;-33
2023/06/19 07:28:04;;;;;;;8.57;7.43;;;21.80;99.90;;;;;;4999592;28;89766;-33
2023/06/19 07:30:30;;;;;;;7.90;6.97;;;21.80;99.90;;;;;;4999690;28;89620;-34
2023/06/19 07:32:56;;;;;;;8.05;7.25;;;21.70;99.90;;;;;;4998809;28;91004;-35
2023/06/19 07:35:21;;;;;;;7.25;6.55;;;21.70;99.90;;;;;;4992984;28;91019;-36
2023/06/19 07:37:47;;;;;;;8.25;6.72;;;21.70;99.90;;;;;;4994322;28;89795;-36
2023/06/19 07:40:13;;;;;;;7.53;6.78;;;21.70;99.90;;;;;;4996340;28;89107;-36
2023/06/19 07:42:38;;;;;;;7.97;6.55;;;21.60;99.90;;;;;;4997544;28;90270;-32
2023/06/19 07:45:05;;;;;;;10.10;6.95;;;21.60;99.90;;;;;;4991474;28;90372;-34
2023/06/19 07:47:30;;;;;;;10.18;6.93;;;21.70;99.90;;;;;;4995886;28;90765;-34
2023/06/19 07:49:56;;;;;;;7.38;6.53;;;21.70;99.90;;;;;;4998329;28;89182;-34
2023/06/19 07:52:22;;;;;;;7.88;7.07;;;21.60;99.90;;;;;;4994574;28;87765;-34
2023/06/19 07:54:52;;;;;;;7.40;6.35;;;21.60;99.90;;;;;;4999819;28;90023;-35
2023/06/19 07:57:18;;;;;;;11.25;6.88;;;21.70;99.90;;;;;;5008784;28;89282;-33
2023/06/19 07:59:44;;;;;;;9.10;6.55;;;21.70;99.90;;;;;;5000897;28;89134;-34
2023/06/19 08:02:10;;;;;;;8.60;7.03;;;21.60;99.90;;;;;;5001554;28;87968;-35
2023/06/19 08:04:36;;;;;;;7.70;6.95;;;21.50;99.90;;;;;;4999363;28;88868;-33
2023/06/19 08:07:02;;;;;;;10.07;7.45;;;21.60;99.90;;;;;;4997978;28;90935;-39
2023/06/19 08:09:27;;;;;;;8.60;7.80;;;21.50;99.90;;;;;;4998506;28;89975;-33
2023/06/19 08:11:53;;;;;;;8.88;7.35;;;21.30;99.90;;;;;;4998823;28;89838;-32
2023/06/19 08:14:18;;;;;;;8.15;7.32;;;21.20;99.90;;;;;;4999119;28;91491;-34
2023/06/19 08:16:45;;;;;;;12.70;6.95;;;21.30;99.90;;;;;;4998764;28;89622;-34
2023/06/19 08:19:10;;;;;;;9.43;8.40;;;21.10;99.90;;;;;;4997109;28;88934;-33
2023/06/19 08:21:36;;;;;;;7.05;6.38;;;21.20;99.90;;;;;;4998766;28;88200;-34
2023/06/19 08:24:02;;;;;;;7.72;7.03;;;21.30;99.90;;;;;;4998087;28;89529;-36
2023/06/19 08:26:28;;;;;;;9.65;8.13;;;21.40;99.90;;;;;;4998697;28;89285;-34
2023/06/19 08:28:54;;;;;;;16.88;9.25;;;21.50;99.90;;;;;;4998695;28;89993;-40
2023/06/19 08:31:21;;;;;;;20.05;8.40;;;21.40;99.90;;;;;;4996845;28;90418;-35
2023/06/19 08:33:50;;;;;;;9.88;8.63;;;21.40;99.90;;;;;;4998470;28;89519;-36
2023/06/19 08:36:16;;;;;;;13.48;9.77;;;21.50;99.90;;;;;;5001312;28;89655;-33
2023/06/19 08:38:41;;;;;;;12.95;10.38;;;21.40;99.90;;;;;;4998345;28;89834;-32
2023/06/19 08:41:07;;;;;;;11.35;10.15;;;21.30;99.90;;;;;;4997648;28;89796;-33
2023/06/19 08:43:32;;;;;;;12.30;11.02;;;21.30;99.90;;;;;;4997396;28;90219;-32
2023/06/19 08:46:11;;;;;;;13.07;11.35;;;21.30;99.90;;;;;;4997579;28;89786;-37
2023/06/19 08:48:37;;;;;;;11.48;10.38;;;21.50;99.90;;;;;;4998033;28;89456;-34
2023/06/19 08:51:04;;;;;;;10.32;9.23;;;21.60;99.90;;;;;;4996631;28;90009;-35
2023/06/19 08:53:35;;;;;;;11.88;10.77;;;21.60;99.90;;;;;;4997901;28;89309;-37
2023/06/19 08:56:03;;;;;;;10.75;9.55;;;21.80;99.90;;;;;;4996513;28;90683;-37
2023/06/19 08:58:28;;;;;;;13.13;11.93;;;21.90;99.90;;;;;;4996013;28;90408;-36
2023/06/19 09:00:57;;;;;;;11.10;9.38;;;21.80;99.90;;;;;;4997312;28;90128;-36
2023/06/19 09:03:22;;;;;;;12.50;11.32;;;21.90;99.90;;;;;;4998560;28;91001;-35
2023/06/19 09:05:52;;;;;;;12.38;11.18;;;22.10;99.90;;;;;;4997318;28;90571;-35
2023/06/19 09:08:22;;;;;;;11.05;10.02;;;22.40;99.90;;;;;;4996969;28;89938;-36
2023/06/19 09:11:18;;;;;;;11.02;9.93;;;22.80;99.90;;;;;;4997064;28;89585;-35
2023/06/19 09:13:43;;;;;;;12.80;11.00;;;22.90;99.90;;;;;;4997156;28;90850;-45
2023/06/19 09:16:09;;;;;;;11.60;10.40;;;22.90;99.90;;;;;;4996779;28;91537;-33
2023/06/19 09:18:48;;;;;;;11.30;10.27;;;23.00;99.90;;;;;;4997259;28;89507;-34
2023/06/19 09:21:24;;;;;;;12.52;11.40;;;23.10;99.90;;;;;;4984265;28;90091;-34
2023/06/19 09:23:53;;;;;;;12.30;11.13;;;23.00;99.90;;;;;;4997571;28;89828;-38
2023/06/19 09:26:20;;;;;;;14.30;13.10;;;23.20;99.90;;;;;;4997050;28;89133;-34
2023/06/19 09:28:46;;;;;;;13.23;11.82;;;22.90;99.90;;;;;;4997089;28;89052;-36
2023/06/19 09:31:12;;;;;;;14.65;10.45;;;23.20;99.90;;;;;;4995437;28;89485;-36
2023/06/19 09:33:39;;;;;;;11.02;10.00;;;23.50;99.90;;;;;;4997192;28;90520;-38
2023/06/19 09:36:06;;;;;;;9.55;8.65;;;23.80;99.90;;;;;;4996960;28;88587;-35
2023/06/19 09:38:40;;;;;;;9.02;6.30;;;23.80;99.90;;;;;;4997169;28;89249;-35
2023/06/19 09:41:06;;;;;;;8.20;6.80;;;23.90;99.90;;;;;;4998429;28;89574;-37
2023/06/19 09:43:42;;;;;;;7.78;7.00;;;23.80;99.90;;;;;;4996518;28;90469;-34
2023/06/19 09:46:09;;;;;;;7.70;7.00;;;23.50;99.90;;;;;;4996879;28;90797;-35
2023/06/19 09:48:40;;;;;;;10.63;8.50;;;23.60;99.90;;;;;;4997938;28;89718;-35
2023/06/19 09:51:12;;;;;;;13.02;8.05;;;23.70;99.90;;;;;;4996194;28;88290;-37
2023/06/19 09:53:39;;;;;;;10.05;8.85;;;24.10;99.90;;;;;;4993318;28;90668;-37
2023/06/19 09:56:05;;;;;;;9.47;8.57;;;24.40;99.90;;;;;;4996539;28;90084;-38
2023/06/19 09:58:32;;;;;;;11.75;9.52;;;24.80;99.90;;;;;;5006681;28;90070;-37
2023/06/19 10:00:59;;;;;;;11.45;10.45;;;24.30;99.90;;;;;;5000250;28;88846;-37
2023/06/19 10:03:36;;;;;;;11.13;9.63;;;24.20;99.90;;;;;;4996605;28;90445;-35
2023/06/19 10:06:03;;;;;;;12.30;10.25;;;24.50;99.90;;;;;;4996880;28;89848;-35
2023/06/19 10:08:31;;;;;;;10.32;9.52;;;24.30;99.90;;;;;;4990212;28;89587;-34
2023/06/19 10:10:57;;;;;;;;;;;24.50;99.90;;;;;;4990345;28;89306;-34
2023/06/19 10:13:31;;;;;;;10.68;7.75;;;24.00;99.90;;;;;;5002868;28;90431;-35
2023/06/19 10:15:57;;;;;;;10.77;9.00;;;24.00;99.90;;;;;;4995713;28;89931;-38
2023/06/19 10:18:24;;;;;;;9.23;8.43;;;23.80;99.90;;;;;;4996609;28;89647;-37
2023/06/19 10:20:50;;;;;;;8.90;8.00;;;23.70;99.90;;;;;;4997168;28;89667;-35
2023/06/19 10:23:24;;;;;;;9.15;8.40;;;23.90;99.90;;;;;;4996010;28;90365;-35
2023/06/19 10:25:58;;;;;;;10.40;9.50;;;23.90;99.90;;;;;;4997096;28;89465;-36
2023/06/19 10:28:34;;;;;;;9.15;8.45;;;23.70;99.90;;;;;;4997167;28;89930;-34
2023/06/19 10:31:04;;;;;;;11.13;9.02;;;23.60;99.90;;;;;;4990361;28;88162;-36
2023/06/19 10:33:34;;;;;;;9.68;8.40;;;23.70;99.90;;;;;;4996735;28;90012;-36
2023/06/19 10:36:02;;;;;;;9.05;8.25;;;23.60;99.90;;;;;;4995503;28;90558;-38
2023/06/19 10:38:28;;;;;;;8.60;7.13;;;23.40;99.90;;;;;;4997021;28;90093;-36
2023/06/19 10:40:54;;;;;;;9.38;8.48;;;23.40;99.90;;;;;;5005290;28;88598;-38
2023/06/19 10:43:31;;;;;;;8.38;7.68;;;23.30;99.90;;;;;;4994878;28;90676;-37
2023/06/19 10:45:57;;;;;;;10.93;7.65;;;23.40;99.90;;;;;;4996366;28;89788;-38
2023/06/19 10:48:24;;;;;;;7.35;6.65;;;23.50;99.90;;;;;;4995907;28;89244;-38
2023/06/19 10:50:50;;;;;;;9.93;8.85;;;23.50;99.90;;;;;;4996981;28;89059;-40
2023/06/19 10:53:31;;;;;;;11.32;8.88;;;23.70;99.90;;;;;;4982798;28;89718;-36
2023/06/19 10:55:58;;;;;;;14.50;9.90;;;23.90;99.90;;;;;;4996943;28;88249;-37
2023/06/19 10:58:24;;;;;;;11.90;10.05;;;23.80;99.90;;;;;;4993926;28;89115;-38
2023/06/19 11:00:50;;;;;;;11.63;8.27;;;23.60;99.90;;;;;;4995161;28;90095;-35
2023/06/19 11:03:15;;;;;;;7.57;6.88;;;23.80;99.90;;;;;;4996147;28;90337;-35
2023/06/19 11:05:44;;;;;;;7.82;6.15;;;23.90;99.90;;;;;;4995758;28;89102;-38
2023/06/19 11:08:10;;;;;;;7.22;6.63;;;23.90;99.90;;;;;;4996034;28;89496;-35
2023/06/19 11:10:36;;;;;;;6.13;5.57;;;23.70;99.90;;;;;;4996260;28;89831;-41
2023/06/19 11:13:02;;;;;;;10.40;5.75;;;23.80;99.90;;;;;;5003477;28;90561;-33
2023/06/19 11:15:31;;;;;;;8.45;5.20;;;23.80;99.90;;;;;;4995388;28;89808;-34
2023/06/19 11:17:58;;;;;;;7.80;6.95;;;23.70;99.90;;;;;;4994487;28;88370;-37
2023/06/19 11:20:27;;;;;;;6.73;6.13;;;23.70;99.90;;;;;;4996087;28;90174;-36
2023/06/19 11:23:00;;;;;;;8.80;7.40;;;24.00;99.90;;;;;;4998616;28;90231;-36
2023/06/19 11:25:39;;;;;;;6.93;6.32;;;23.90;99.90;;;;;;4984241;28;90488;-33
2023/06/19 11:28:14;;;;;;;7.32;6.63;;;23.80;99.90;;;;;;4985904;28;90987;-37
2023/06/19 11:30:43;;;;;;;8.52;6.78;;;23.80;99.90;;;;;;4995598;28;89368;-38
2023/06/19 11:33:22;;;;;;;7.68;6.95;;;23.70;99.90;;;;;;4994721;28;90003;-34
2023/06/19 11:36:00;;;;;;;12.15;7.82;;;23.60;99.90;;;;;;4995808;28;89450;-34
2023/06/19 11:38:27;;;;;;;7.22;6.55;;;23.10;99.90;;;;;;4995245;28;90689;-37
2023/06/19 11:40:54;;;;;;;9.07;7.20;;;23.20;99.90;;;;;;4995328;28;89125;-33
2023/06/19 11:43:30;;;;;;;10.60;9.60;;;23.50;99.90;;;;;;4994271;28;91172;-36
2023/06/19 11:46:04;;;;;;;9.10;7.68;;;23.60;99.90;;;;;;4988310;28;89403;-38
2023/06/19 11:48:29;;;;;;;9.07;8.02;;;23.60;99.90;;;;;;4997080;28;88979;-34
2023/06/19 11:50:55;;;;;;;13.30;7.97;;;23.80;99.90;;;;;;4995173;28;90301;-38
2023/06/19 11:53:21;;;;;;;7.82;7.13;;;23.60;99.90;;;;;;4995508;28;88898;-36
2023/06/19 11:55:47;;;;;;;8.45;7.35;;;23.80;99.90;;;;;;4998957;28;89393;-38
2023/06/19 11:58:15;;;;;;;11.05;9.05;;;24.00;99.90;;;;;;4997594;28;89975;-37
2023/06/19 12:00:41;;;;;;;7.78;6.97;;;23.70;99.90;;;;;;5006877;28;88442;-37
2023/06/19 12:03:06;;;;;;;7.88;7.13;;;23.80;99.90;;;;;;4997982;28;90799;-39
2023/06/19 12:05:32;;;;;;;8.07;7.28;;;24.10;99.90;;;;;;5006192;28;90380;-37
2023/06/19 12:07:58;;;;;;;9.50;8.00;;;24.10;99.90;;;;;;4999551;28;89861;-37
2023/06/19 12:10:23;;;;;;;13.43;7.43;;;24.30;99.90;;;;;;4998394;28;89939;-34
2023/06/19 12:12:49;;;;;;;11.30;7.70;;;24.10;99.90;;;;;;4999026;28;89901;-34
2023/06/19 12:15:15;;;;;;;10.07;7.30;;;24.20;99.90;;;;;;4998042;28;90660;-40
2023/06/19 12:17:41;;;;;;;9.20;8.40;;;24.30;99.90;;;;;;4997718;28;90383;-34
2023/06/19 12:20:07;;;;;;;10.75;7.93;;;24.10;99.90;;;;;;5007019;28;89877;-36
2023/06/19 12:22:34;;;;;;;8.10;7.40;;;23.90;99.90;;;;;;4999785;28;90402;-34
2023/06/19 12:25:01;;;;;;;8.73;7.82;;;23.60;99.90;;;;;;5005056;28;89933;-37
2023/06/19 12:27:26;;;;;;;9.02;7.82;;;23.70;99.90;;;;;;4997323;28;90204;-40
2023/06/19 12:29:52;;;;;;;8.85;7.38;;;23.80;99.90;;;;;;4998195;28;89146;-33
2023/06/19 12:32:18;;;;;;;10.20;9.15;;;24.00;99.90;;;;;;4997271;28;87776;-35
2023/06/19 12:34:46;;;;;;;9.00;8.20;;;23.70;99.90;;;;;;4980813;28;89753;-36
2023/06/19 12:37:17;;;;;;;9.50;8.30;;;23.90;99.90;;;;;;5016861;28;88955;-35
2023/06/19 12:39:43;;;;;;;9.95;8.20;;;24.00;99.90;;;;;;5004470;28;90274;-38